EW8552 Weather Reports


time (UTC)temp
F
wind
direction
speed
knots
gust
knots
rain 1hr
in
rain 24hr
in
rain mn
in
humidity
%
barometer
mb
20260504230016 74 0.0 1.7 0.00 0.00 0.00 38 1009.6
20260504223016 74 248 0.9 5.2 0.00 0.00 0.00 36 1009.6
20260504220017 77 90 0.9 5.2 0.00 0.00 0.00 34 1009.5
20260504213016 78 90 0.9 4.3 0.00 0.00 0.00 32 1009.6
20260504210016 77 203 0.9 3.5 0.00 0.00 0.00 32 1009.6
20260504203016 78 113 0.9 3.5 0.00 0.00 0.00 31 1009.8
20260504200017 77 225 0.9 4.3 0.00 0.00 0.00 32 1010.3
20260504193037 76 90 0.9 2.6 0.00 0.00 0.00 33 1010.6
20260504190037 75 90 0.9 3.5 0.00 0.00 0.00 34 1011.2
20260504183036 74 248 0.9 4.3 0.00 0.00 0.00 33 1011.9
20260504180016 73 225 0.9 4.3 0.00 0.00 0.00 36 1012.1
20260504173016 73 225 0.9 4.3 0.00 0.00 0.00 34 1012.4
20260504043017 50 0.0 0.0 0.00 0.00 0.00 56 1015.6
20260504040017 50 0.0 0.0 0.00 0.00 0.00 53 1015.6
20260504033017 50 0.0 0.0 0.00 0.00 0.00 52 1015.4
20260504030017 50 0.0 0.0 0.00 0.00 0.00 55 1015.1
20260504023037 51 0.0 0.0 0.00 0.00 0.00 52 1015.0
20260504020016 51 0.0 0.0 0.00 0.00 0.00 53 1015.0
20260504013016 52 0.0 0.0 0.00 0.00 0.00 49 1014.8
20260504010016 54 0.0 0.0 0.00 0.00 0.00 47 1014.6
20260504003017 55 0.0 0.0 0.00 0.00 0.00 43 1014.5
20260504000057 57 0.0 0.0 0.00 0.00 0.00 39 1014.1
20260503233017 59 0.0 0.0 0.00 0.00 0.00 35 1014.0